Time;durP1;ratioP1;P1;durP2;ratioP2;P2;SDS_P1;SDS_P2;PMS_P1;PMS_P2;Temp;Humidity;BMP_temperature;BMP_pressure;BME280_temperature;BME280_humidity;BME280_pressure;Samples;Min_cycle;Max_cycle;Signal;HPM_P1;HPM_P2
2022/05/17 00:00:24;;;;;;;5.28;2.17;;;;;;;14.24;62.13;101311.81;1925507;74;21141;-66
2022/05/17 00:02:53;;;;;;;3.55;2.45;;;;;;;14.25;62.17;101313.52;1867070;75;21019;-64
2022/05/17 00:05:22;;;;;;;3.83;2.17;;;;;;;14.29;62.21;101315.13;1855489;75;21094;-64
2022/05/17 00:07:50;;;;;;;4.05;2.17;;;;;;;14.31;61.90;101314.17;1848148;75;21139;-65
2022/05/17 00:10:21;;;;;;;2.75;1.95;;;;;;;14.31;61.78;101309.73;1876407;76;21051;-68
2022/05/17 00:12:50;;;;;;;4.53;2.02;;;;;;;14.33;62.08;101318.50;1875927;75;21205;-65
2022/05/17 00:15:21;;;;;;;1.80;1.60;;;;;;;14.35;62.17;101321.93;1876453;76;21326;-65
2022/05/17 00:17:52;;;;;;;2.42;1.87;;;;;;;14.36;62.03;101318.34;1884088;75;21621;-66
2022/05/17 00:20:22;;;;;;;2.17;1.22;;;;;;;14.38;62.09;101312.97;1910466;75;21543;-65
2022/05/17 00:22:50;;;;;;;2.62;1.67;;;;;;;14.39;61.90;101311.58;1910595;75;21013;-64
2022/05/17 00:25:22;;;;;;;2.58;1.95;;;;;;;14.39;61.81;101311.58;1910524;75;21104;-64
2022/05/17 00:27:51;;;;;;;3.08;2.17;;;;;;;14.39;62.22;101310.25;1910544;75;21032;-66
2022/05/17 00:30:21;;;;;;;3.80;2.45;;;;;;;14.40;62.63;101306.66;1884689;75;21567;-69
2022/05/17 00:32:49;;;;;;;4.53;2.60;;;;;;;14.42;62.90;101303.95;1891524;75;21065;-67
2022/05/17 00:35:18;;;;;;;3.47;2.15;;;;;;;14.43;62.92;101304.35;1910533;75;21134;-68
2022/05/17 00:37:47;;;;;;;3.12;2.20;;;;;;;14.42;62.55;101303.95;1910393;74;21649;-68
2022/05/17 00:40:17;;;;;;;5.87;2.52;;;;;;;14.41;62.61;101302.25;1888647;75;21511;-65
2022/05/17 00:42:45;;;;;;;4.75;3.17;;;;;;;14.40;62.81;101297.86;1857614;76;21092;-65
2022/05/17 00:45:14;;;;;;;6.42;2.10;;;;;;;14.42;63.39;101303.95;1859883;76;21020;-65
2022/05/17 00:47:49;;;;;;;3.22;2.05;;;;;;;14.43;63.37;101296.41;1874372;76;21460;-65
2022/05/17 00:50:29;;;;;;;3.98;1.80;;;;;;;14.43;63.32;101295.93;1880208;75;21019;-64
2022/05/17 00:53:01;;;;;;;3.62;1.92;;;;;;;14.42;63.19;101298.64;1871805;76;21225;-64
2022/05/17 00:55:35;;;;;;;3.77;2.45;;;;;;;14.39;63.33;101289.54;1856022;76;21099;-63
2022/05/17 00:58:12;;;;;;;4.10;2.27;;;;;;;14.36;63.52;101280.39;1876584;76;21139;-64
2022/05/17 01:00:46;;;;;;;2.87;1.70;;;;;;;14.34;63.99;101280.94;1876972;75;21115;-64
2022/05/17 01:03:18;;;;;;;3.00;1.87;;;;;;;14.31;64.00;101283.23;1873015;76;21126;-63
2022/05/17 01:05:50;;;;;;;2.58;1.55;;;;;;;14.26;64.20;101282.14;1875914;76;21159;-64
2022/05/17 01:08:20;;;;;;;3.62;2.80;;;;;;;14.19;64.11;101278.05;1868723;77;21539;-64
2022/05/17 01:10:48;;;;;;;3.08;2.15;;;;;;;14.17;64.89;101272.45;1875741;74;21031;-63
2022/05/17 01:16:05;;;;;;;2.10;1.90;;;;;;;14.16;65.15;101270.23;1931327;74;21024;-64
2022/05/17 01:18:36;;;;;;;2.37;1.60;;;;;;;14.12;65.10;101267.34;1931363;74;21086;-62
2022/05/17 01:21:06;;;;;;;2.25;1.67;;;;;;;14.09;65.26;101263.50;1926108;74;21064;-65
2022/05/17 01:23:35;;;;;;;5.85;2.62;;;;;;;14.07;65.70;101258.30;1881101;76;21039;-65
2022/05/17 01:26:04;;;;;;;2.40;1.90;;;;;;;14.07;66.25;101256.09;1881160;76;21039;-65
2022/05/17 01:28:35;;;;;;;3.87;2.02;;;;;;;14.06;66.35;101264.98;1889064;74;21461;-64
2022/05/17 01:31:05;;;;;;;2.30;1.80;;;;;;;14.04;66.33;101264.20;1892384;76;21035;-65
2022/05/17 01:33:37;;;;;;;6.35;1.95;;;;;;;14.03;66.32;101261.14;1892283;76;21033;-65
2022/05/17 01:36:09;;;;;;;7.95;3.10;;;;;;;14.03;66.62;101262.46;1892206;76;21026;-67
2022/05/17 01:38:39;;;;;;;6.30;2.75;;;;;;;14.02;66.89;101258.11;1925439;74;21082;-64
2022/05/17 01:41:09;;;;;;;3.17;1.82;;;;;;;14.06;67.21;101254.39;1931424;74;21177;-63
2022/05/17 01:43:37;;;;;;;3.77;2.50;;;;;;;14.07;67.28;101266.69;1931305;74;21008;-63
2022/05/17 01:46:08;;;;;;;3.52;2.08;;;;;;;14.06;67.35;101268.95;1931315;74;21044;-62
2022/05/17 01:48:37;;;;;;;2.80;2.15;;;;;;;14.04;67.40;101256.25;1931288;74;21040;-62
2022/05/17 01:51:08;;;;;;;2.90;2.40;;;;;;;14.03;67.45;101261.14;1931596;74;21447;-63
2022/05/17 01:53:38;;;;;;;4.78;2.92;;;;;;;14.01;67.29;101264.32;1851309;77;21147;-63
2022/05/17 01:56:08;;;;;;;3.90;2.83;;;;;;;13.99;67.91;101254.27;1851347;77;21056;-63
2022/05/17 01:58:37;;;;;;;3.90;2.77;;;;;;;13.98;68.50;101260.48;1851362;77;21130;-64
2022/05/17 02:01:08;;;;;;;4.83;3.20;;;;;;;13.97;68.59;101263.59;1851412;76;21126;-65
2022/05/17 02:03:37;;;;;;;3.75;2.47;;;;;;;13.97;68.93;101260.09;1852617;74;21048;-64
2022/05/17 02:06:06;;;;;;;4.15;2.47;;;;;;;13.97;69.23;101249.52;1851285;76;21494;-66
2022/05/17 02:08:35;;;;;;;5.12;2.60;;;;;;;14.00;69.27;101257.30;1851452;76;21056;-65
2022/05/17 02:11:04;;;;;;;7.28;3.00;;;;;;;14.01;69.34;101248.44;1851632;77;21122;-65
2022/05/17 02:13:33;;;;;;;5.87;3.50;;;;;;;14.04;69.26;101258.42;1851272;77;21130;-66
2022/05/17 02:16:06;;;;;;;7.37;3.00;;;;;;;14.05;69.35;101248.24;1851417;77;21096;-67
2022/05/17 02:18:35;;;;;;;3.77;2.70;;;;;;;14.10;69.65;101257.28;1892727;74;21050;-65
2022/05/17 02:21:04;;;;;;;4.87;2.72;;;;;;;14.14;69.61;101246.94;1892401;76;21050;-64
2022/05/17 02:23:33;;;;;;;5.92;2.67;;;;;;;14.17;69.56;101260.05;1892426;76;21505;-65
2022/05/17 02:26:02;;;;;;;4.53;2.70;;;;;;;14.19;69.42;101253.37;1892325;76;21078;-67
2022/05/17 02:28:30;;;;;;;4.97;2.35;;;;;;;14.19;69.50;101251.57;1883269;74;21060;-65
2022/05/17 02:30:59;;;;;;;4.37;2.42;;;;;;;14.19;69.67;101257.34;1882870;76;21138;-65
2022/05/17 02:33:29;;;;;;;6.37;2.85;;;;;;;14.20;69.83;101254.63;1882838;76;21506;-64
2022/05/17 02:35:58;;;;;;;3.70;2.47;;;;;;;14.22;69.66;101252.77;1882956;74;21068;-65
2022/05/17 02:38:28;;;;;;;4.83;2.52;;;;;;;14.32;69.71;101254.52;1882743;76;21146;-65
2022/05/17 02:40:57;;;;;;;5.83;2.85;;;;;;;14.42;69.65;101250.95;1882973;76;21112;-64
2022/05/17 02:43:25;;;;;;;5.45;2.55;;;;;;;14.50;69.50;101251.47;1881056;74;21019;-66
2022/05/17 02:45:54;;;;;;;3.17;2.50;;;;;;;14.58;69.26;101247.16;1880613;76;21051;-66
2022/05/17 02:48:23;;;;;;;4.70;2.80;;;;;;;14.61;68.99;101257.63;1880335;76;21027;-65
2022/05/17 02:50:52;;;;;;;6.70;3.15;;;;;;;14.67;68.90;101254.19;1880398;76;21552;-64
2022/05/17 02:53:21;;;;;;;5.80;2.35;;;;;;;14.84;68.52;101258.67;1912280;74;21216;-64
2022/05/17 02:55:50;;;;;;;3.12;2.70;;;;;;;14.81;68.25;101244.27;1931391;74;21541;-64
2022/05/17 02:58:18;;;;;;;8.40;3.08;;;;;;;14.82;68.18;101258.38;1931495;74;21036;-64
2022/05/17 03:00:48;;;;;;;4.72;2.75;;;;;;;14.87;67.92;101260.34;1931524;74;21142;-64
2022/05/17 03:03:16;;;;;;;3.60;2.62;;;;;;;14.82;67.79;101255.25;1931405;74;21008;-64
2022/05/17 03:05:45;;;;;;;2.80;2.12;;;;;;;14.77;67.84;101253.75;1931414;74;21110;-64
2022/05/17 03:08:14;;;;;;;2.62;2.15;;;;;;;14.71;67.80;101250.93;1904743;74;21556;-64
2022/05/17 03:10:45;;;;;;;4.40;2.30;;;;;;;14.69;67.91;101254.13;1911925;74;21090;-65
2022/05/17 03:13:15;;;;;;;2.62;2.42;;;;;;;14.71;67.89;101259.36;1925551;74;21031;-63
2022/05/17 03:15:44;;;;;;;4.37;2.65;;;;;;;14.71;67.79;101256.70;1925689;74;21030;-64
2022/05/17 03:18:13;;;;;;;4.40;2.60;;;;;;;14.73;67.87;101258.34;1908546;73;21470;-64
2022/05/17 03:20:42;;;;;;;6.28;2.37;;;;;;;14.79;67.74;101263.81;1892391;76;21096;-63
2022/05/17 03:23:11;;;;;;;5.53;2.22;;;;;;;14.91;67.64;101257.92;1892504;75;21066;-63
2022/05/17 03:25:39;;;;;;;2.00;1.80;;;;;;;15.10;67.52;101260.52;1892393;76;21050;-63
2022/05/17 03:28:10;;;;;;;2.72;2.12;;;;;;;15.28;67.54;101258.75;1892502;76;21137;-63
2022/05/17 03:30:39;;;;;;;3.12;2.20;;;;;;;15.34;66.99;101258.90;1892266;76;21493;-65
2022/05/17 03:33:09;;;;;;;3.22;1.90;;;;;;;15.52;66.98;101265.07;1893420;73;21120;-63
2022/05/17 03:35:38;;;;;;;4.28;2.10;;;;;;;15.57;66.31;101255.08;1892372;76;21509;-63
2022/05/17 03:38:07;;;;;;;2.58;1.87;;;;;;;15.58;66.04;101256.78;1892360;76;21071;-63
2022/05/17 03:40:36;;;;;;;3.90;2.30;;;;;;;15.57;65.84;101259.06;1892281;76;21054;-63
2022/05/17 03:43:04;;;;;;;3.42;2.15;;;;;;;15.53;65.78;101245.54;1906703;73;21031;-63
2022/05/17 03:45:33;;;;;;;3.40;2.30;;;;;;;15.49;65.70;101247.97;1932313;74;21121;-66
2022/05/17 03:48:02;;;;;;;3.50;2.30;;;;;;;15.49;65.76;101242.19;1932396;74;21100;-66
2022/05/17 03:50:31;;;;;;;2.47;2.02;;;;;;;15.50;65.75;101239.08;1932442;74;21058;-66
2022/05/17 03:53:02;;;;;;;2.65;1.98;;;;;;;15.52;65.69;101247.82;1932594;74;21108;-66
2022/05/17 03:55:31;;;;;;;7.97;2.50;;;;;;;15.60;65.67;101241.62;1932324;74;21038;-66
2022/05/17 03:58:00;;;;;;;2.80;2.30;;;;;;;15.68;65.68;101249.19;1929804;73;21911;-63
2022/05/17 04:00:29;;;;;;;7.22;2.27;;;;;;;15.94;65.51;101238.58;1925622;74;21015;-64
2022/05/17 04:02:58;;;;;;;4.90;2.10;;;;;;;16.07;65.13;101234.79;1925550;74;21140;-64
2022/05/17 04:05:27;;;;;;;3.75;2.62;;;;;;;16.14;64.85;101245.47;1905283;73;21058;-64
2022/05/17 04:07:56;;;;;;;3.83;2.20;;;;;;;16.18;64.79;101241.22;1889923;75;21081;-63
2022/05/17 04:10:25;;;;;;;4.97;2.50;;;;;;;16.50;64.52;101251.02;1876269;76;21051;-64
2022/05/17 04:12:54;;;;;;;5.40;2.22;;;;;;;16.57;64.23;101250.58;1876447;76;21096;-64
2022/05/17 04:15:24;;;;;;;4.10;2.12;;;;;;;16.70;63.65;101244.10;1880165;75;21140;-62
2022/05/17 04:17:54;;;;;;;3.27;2.00;;;;;;;16.73;63.62;101249.73;1885304;76;21145;-62
2022/05/17 04:20:24;;;;;;;3.10;1.77;;;;;;;16.98;63.38;101246.06;1885263;76;21145;-63
2022/05/17 04:22:58;;;;;;;3.33;2.27;;;;;;;16.96;62.95;101255.09;1885169;76;21107;-63
2022/05/17 04:25:26;;;;;;;2.55;2.05;;;;;;;16.94;62.89;101239.69;1884420;76;21043;-62
2022/05/17 04:27:55;;;;;;;7.40;2.92;;;;;;;17.13;62.68;101250.11;1885474;76;21422;-64
2022/05/17 04:30:25;;;;;;;3.50;2.08;;;;;;;17.58;62.21;101244.34;1885422;76;21036;-63
2022/05/17 04:32:53;;;;;;;2.92;2.27;;;;;;;18.02;61.56;101257.23;1885257;75;21078;-62
2022/05/17 04:35:22;;;;;;;3.77;2.50;;;;;;;18.19;60.24;101252.20;1885124;76;21036;-63
2022/05/17 04:37:52;;;;;;;6.37;2.10;;;;;;;17.88;59.98;101250.96;1907298;75;21020;-63
2022/05/17 04:40:21;;;;;;;3.15;2.00;;;;;;;17.88;60.25;101245.62;1909094;75;21031;-62
2022/05/17 04:42:50;;;;;;;6.30;1.95;;;;;;;18.11;59.88;101258.88;1908975;75;21027;-63
2022/05/17 04:45:19;;;;;;;5.08;2.08;;;;;;;18.28;59.77;101260.95;1908972;75;21043;-63
2022/05/17 04:47:48;;;;;;;4.75;2.02;;;;;;;18.56;59.84;101261.86;1890484;75;21547;-63
2022/05/17 04:50:18;;;;;;;4.00;2.20;;;;;;;18.77;59.08;101260.45;1885351;76;21051;-63
2022/05/17 04:52:48;;;;;;;6.03;2.90;;;;;;;19.16;58.52;101260.62;1885323;76;21036;-63
2022/05/17 04:55:19;;;;;;;3.20;2.17;;;;;;;19.33;57.64;101254.14;1885348;76;21079;-63
2022/05/17 04:57:48;;;;;;;4.45;2.00;;;;;;;19.17;57.02;101257.00;1880460;76;21035;-64
2022/05/17 05:00:20;;;;;;;3.47;2.22;;;;;;;19.28;57.15;101266.48;1876290;76;21071;-63
2022/05/17 05:02:49;;;;;;;3.35;1.90;;;;;;;19.52;56.84;101259.95;1876358;76;21173;-64
2022/05/17 05:05:19;;;;;;;3.52;2.00;;;;;;;19.56;56.76;101259.26;1876531;76;21548;-64
2022/05/17 05:07:48;;;;;;;3.05;2.10;;;;;;;19.99;56.12;101250.48;1877097;76;21039;-63
2022/05/17 05:10:16;;;;;;;2.90;1.85;;;;;;;20.22;55.14;101261.35;1889471;75;21144;-63
2022/05/17 05:12:45;;;;;;;2.90;1.95;;;;;;;20.33;54.53;101265.45;1892316;76;21026;-64
2022/05/17 05:15:14;;;;;;;3.20;2.02;;;;;;;20.09;54.62;101256.52;1927276;73;21031;-63
2022/05/17 05:17:44;;;;;;;3.08;1.90;;;;;;;19.87;54.70;101264.70;1959660;73;21074;-64
2022/05/17 05:20:15;;;;;;;2.12;1.60;;;;;;;20.19;54.68;101265.58;1959581;73;21035;-63
2022/05/17 05:22:45;;;;;;;4.90;2.40;;;;;;;20.74;54.45;101272.80;1948806;73;21113;-64
2022/05/17 05:25:20;;;;;;;3.75;2.17;;;;;;;21.06;53.55;101273.06;1892313;76;21559;-65
2022/05/17 05:27:47;;;;;;;4.20;1.62;;;;;;;21.05;52.87;101274.05;1891013;76;21126;-63
2022/05/17 05:30:19;;;;;;;3.30;1.98;;;;;;;21.25;53.13;101275.70;1891456;76;21508;-63
2022/05/17 05:32:48;;;;;;;6.28;1.77;;;;;;;21.23;52.16;101270.95;1892677;76;21042;-64
2022/05/17 05:35:20;;;;;;;2.30;1.57;;;;;;;21.36;52.09;101277.11;1892309;76;21578;-65
2022/05/17 05:37:49;;;;;;;4.85;1.62;;;;;;;21.63;51.36;101271.95;1909094;73;21023;-63
2022/05/17 05:40:19;;;;;;;3.20;1.60;;;;;;;21.86;50.72;101275.05;1959613;73;21410;-63
2022/05/17 05:42:53;;;;;;;3.45;1.90;;;;;;;21.92;49.94;101270.53;1959622;73;21024;-63
2022/05/17 05:45:22;;;;;;;5.03;1.47;;;;;;;22.25;49.93;101276.03;1935658;73;21073;-63
2022/05/17 05:47:50;;;;;;;2.30;1.92;;;;;;;22.40;48.37;101275.32;1916573;75;20983;-64
2022/05/17 05:50:19;;;;;;;4.45;2.17;;;;;;;22.30;48.34;101280.58;1916476;75;20984;-63
2022/05/17 05:52:49;;;;;;;3.37;1.87;;;;;;;22.15;48.28;101278.58;1916517;75;21015;-65
2022/05/17 05:55:20;;;;;;;3.47;1.52;;;;;;;21.92;48.65;101282.59;1917789;74;21457;-64
2022/05/17 05:57:49;;;;;;;4.33;1.50;;;;;;;22.19;48.19;101269.34;1923613;74;21043;-65
2022/05/17 06:00:20;;;;;;;2.25;1.32;;;;;;;22.03;48.11;101283.59;1925494;74;21079;-65
2022/05/17 06:02:49;;;;;;;2.67;1.20;;;;;;;22.08;48.31;101268.84;1925544;74;21104;-66
2022/05/17 06:05:19;;;;;;;4.37;1.60;;;;;;;22.35;47.98;101283.27;1924708;74;21156;-64
2022/05/17 06:07:47;;;;;;;5.65;1.52;;;;;;;22.47;47.37;101281.41;1932268;74;21489;-64
2022/05/17 06:10:17;;;;;;;4.28;1.15;;;;;;;22.65;46.99;101281.75;1922392;74;21071;-65
2022/05/17 06:12:45;;;;;;;3.33;1.50;;;;;;;22.73;46.43;101268.53;1913012;75;21043;-63
2022/05/17 06:15:15;;;;;;;3.58;1.77;;;;;;;23.00;46.09;101275.30;1912971;75;21070;-65
2022/05/17 06:17:43;;;;;;;1.92;1.40;;;;;;;23.06;45.45;101270.78;1912995;75;21176;-64
2022/05/17 06:20:17;;;;;;;2.35;1.10;;;;;;;23.23;45.44;101271.20;1910762;75;21157;-64
2022/05/17 06:22:46;;;;;;;2.58;1.70;;;;;;;23.35;44.08;101269.30;1912988;75;21113;-64
2022/05/17 06:25:15;;;;;;;4.05;1.37;;;;;;;23.44;43.71;101257.30;1913033;75;21160;-64
2022/05/17 06:27:44;;;;;;;2.83;1.47;;;;;;;23.54;43.51;101247.11;1913152;75;21101;-62
2022/05/17 06:30:13;;;;;;;5.42;1.32;;;;;;;23.61;43.47;101251.81;1904700;75;21121;-62
2022/05/17 06:32:43;;;;;;;4.15;1.32;;;;;;;23.69;43.32;101267.28;1882731;76;21067;-62
2022/05/17 06:35:12;;;;;;;4.25;1.50;;;;;;;23.93;43.32;101262.98;1882681;76;21572;-63
2022/05/17 06:37:42;;;;;;;3.33;1.25;;;;;;;24.05;42.93;101269.11;1882825;75;21023;-64
2022/05/17 06:40:11;;;;;;;3.58;1.32;;;;;;;24.16;42.69;101270.39;1882742;76;21019;-63
2022/05/17 06:42:40;;;;;;;2.75;1.57;;;;;;;24.34;42.34;101261.66;1882751;75;21051;-66
2022/05/17 06:45:11;;;;;;;3.47;1.72;;;;;;;24.64;42.50;101257.59;1883435;75;21078;-65
2022/05/17 06:47:40;;;;;;;1.92;1.50;;;;;;;24.75;41.35;101258.44;1882817;76;21043;-64
2022/05/17 06:50:10;;;;;;;3.60;1.50;;;;;;;24.96;40.90;101260.52;1882816;76;21039;-64
2022/05/17 06:52:39;;;;;;;1.95;1.30;;;;;;;25.35;40.34;101252.95;1898974;75;21093;-64
2022/05/17 06:55:08;;;;;;;1.85;1.37;;;;;;;25.42;39.79;101252.23;1912895;75;21097;-63
2022/05/17 06:57:40;;;;;;;3.33;1.40;;;;;;;25.29;39.93;101258.42;1913320;75;21016;-62
2022/05/17 07:00:11;;;;;;;3.55;1.37;;;;;;;24.92;40.09;101256.41;1912881;75;21027;-64
2022/05/17 07:02:40;;;;;;;3.95;1.30;;;;;;;25.04;39.64;101256.61;1892283;75;21470;-63
2022/05/17 07:05:10;;;;;;;3.98;1.20;;;;;;;25.23;39.36;101252.20;1882814;76;21050;-63
2022/05/17 07:07:39;;;;;;;5.33;1.22;;;;;;;25.23;39.07;101249.51;1899400;75;21093;-62
2022/05/17 07:13:09;;;;;;;4.87;1.77;;;;;;;25.36;39.45;101241.16;1880160;76;21048;-61
2022/05/17 07:15:40;;;;;;;4.30;1.42;;;;;;;25.57;38.81;101259.36;1880048;76;21150;-63
2022/05/17 07:18:11;;;;;;;1.98;1.10;;;;;;;25.61;38.63;101251.84;1877520;75;21008;-59
2022/05/17 07:20:40;;;;;;;2.02;0.88;;;;;;;25.67;38.72;101249.89;1903315;75;21077;-60
2022/05/17 07:23:09;;;;;;;3.15;1.05;;;;;;;25.81;38.55;101239.98;1906469;75;21064;-60
2022/05/17 07:25:40;;;;;;;2.27;1.52;;;;;;;25.94;37.68;101246.94;1879420;75;21093;-59
2022/05/17 07:28:13;;;;;;;1.72;1.15;;;;;;;26.17;36.73;101248.27;1874428;76;21044;-60
2022/05/17 07:30:42;;;;;;;2.62;1.50;;;;;;;25.99;36.71;101251.41;1874137;76;21035;-60
2022/05/17 07:33:11;;;;;;;4.47;1.37;;;;;;;25.66;37.07;101248.20;1874265;76;21507;-62
2022/05/17 07:35:40;;;;;;;2.47;1.60;;;;;;;25.87;37.42;101237.70;1874752;76;21156;-60
2022/05/17 07:38:10;;;;;;;3.58;1.22;;;;;;;26.06;36.89;101249.81;1878193;75;21773;-61
2022/05/17 07:40:41;;;;;;;2.60;1.17;;;;;;;26.09;35.53;101248.66;1889210;75;21462;-62
2022/05/17 07:43:11;;;;;;;2.55;1.32;;;;;;;26.02;36.59;101246.20;1879930;76;21035;-61
2022/05/17 07:45:39;;;;;;;3.60;1.10;;;;;;;26.06;36.96;101243.06;1875341;75;21453;-61
2022/05/17 07:48:09;;;;;;;1.57;1.02;;;;;;;26.41;36.79;101241.95;1882296;75;21139;-60
2022/05/17 07:50:39;;;;;;;3.02;1.17;;;;;;;26.68;35.71;101242.45;1882810;75;21110;-61
2022/05/17 07:53:10;;;;;;;3.37;1.55;;;;;;;26.95;35.10;101246.43;1891722;75;21478;-61
2022/05/17 07:55:41;;;;;;;2.92;1.25;;;;;;;26.86;34.26;101254.63;1872374;75;21096;-62
2022/05/17 07:58:11;;;;;;;2.45;0.82;;;;;;;26.87;33.79;101232.86;1884684;75;21024;-62
2022/05/17 08:00:42;;;;;;;1.55;1.02;;;;;;;26.65;34.27;101253.06;1901209;75;21117;-61
2022/05/17 08:03:15;;;;;;;1.75;1.20;;;;;;;26.86;33.81;101250.57;1896067;75;21450;-62
2022/05/17 08:05:43;;;;;;;;;;;;;;;26.91;33.34;101232.02;1909301;75;21113;-63
2022/05/17 08:08:13;;;;;;;2.65;1.10;;;;;;;26.56;33.74;101238.59;1879626;75;20199;-63
2022/05/17 08:10:42;;;;;;;2.40;1.07;;;;;;;26.73;34.43;101240.98;1874975;75;21556;-62
2022/05/17 08:13:11;;;;;;;2.83;1.30;;;;;;;26.89;33.12;101236.25;1882787;76;21039;-61
2022/05/17 08:15:41;;;;;;;3.45;0.95;;;;;;;26.54;33.53;101248.70;1882751;76;21050;-61
2022/05/17 08:18:10;;;;;;;3.47;1.30;;;;;;;26.40;33.46;101220.86;1884813;75;21018;-64
2022/05/17 08:20:39;;;;;;;2.15;1.00;;;;;;;26.09;33.80;101229.25;1883105;75;21551;-65
2022/05/17 08:23:08;;;;;;;1.10;0.95;;;;;;;26.07;34.40;101228.55;1882804;76;21059;-64
2022/05/17 08:28:23;;;;;;;2.52;1.20;;;;;;;25.95;34.04;101218.95;1885078;75;21539;-61
2022/05/17 08:30:52;;;;;;;2.83;1.17;;;;;;;25.91;34.43;101214.82;1882796;76;21085;-63
2022/05/17 08:36:12;;;;;;;2.90;1.30;;;;;;;26.58;33.54;101210.09;1820506;79;21507;-59
2022/05/17 08:38:43;;;;;;;4.00;0.80;;;;;;;26.56;33.67;101206.18;1815619;79;21076;-59
2022/05/17 08:41:36;;;;;;;1.42;1.05;;;;;;;26.29;33.36;101215.16;1784758;80;21048;-61
2022/05/17 08:44:23;;;;;;;1.42;0.90;;;;;;;26.00;33.54;101219.36;1817577;78;21036;-61
2022/05/17 08:47:05;;;;;;;2.25;1.02;;;;;;;26.19;34.05;101206.25;1820760;79;21091;-61
2022/05/17 08:49:40;;;;;;;2.10;1.00;;;;;;;26.41;32.98;101215.78;1882534;76;21109;-61
2022/05/17 08:52:14;;;;;;;4.70;1.17;;;;;;;26.16;33.56;101211.47;1882443;76;21043;-61
2022/05/17 08:54:58;;;;;;;2.75;1.10;;;;;;;26.35;33.03;101208.30;1913126;75;21072;-59
2022/05/17 08:57:48;;;;;;;1.17;0.80;;;;;;;26.26;33.74;101202.47;1915803;75;21490;-61
2022/05/17 09:00:19;;;;;;;1.67;1.22;;;;;;;26.15;33.37;101193.59;1915629;75;21030;-61
2022/05/17 09:02:51;;;;;;;1.95;1.10;;;;;;;26.17;33.24;101190.72;1913187;75;21543;-61
2022/05/17 09:05:51;;;;;;;2.80;1.00;;;;;;;26.29;33.03;101186.81;1913180;75;21011;-60
2022/05/17 09:08:46;;;;;;;3.90;1.32;;;;;;;26.54;33.19;101195.17;1915632;75;21092;-60
2022/05/17 09:11:42;;;;;;;2.98;1.00;;;;;;;26.74;32.20;101187.80;1915734;75;21079;-61
2022/05/17 09:14:21;;;;;;;1.92;1.00;;;;;;;26.89;32.60;101198.91;1912625;75;21071;-61
2022/05/17 09:16:53;;;;;;;0.78;0.78;;;;;;;26.50;32.94;101194.62;1915494;75;21030;-60
2022/05/17 09:19:22;;;;;;;1.83;1.10;;;;;;;26.44;33.31;101181.74;1914660;75;21031;-59
2022/05/17 09:21:53;;;;;;;3.75;1.02;;;;;;;26.35;33.59;101182.66;1890814;76;21103;-61
2022/05/17 09:24:22;;;;;;;2.22;1.10;;;;;;;26.26;33.89;101188.97;1852226;77;21047;-60
2022/05/17 09:27:08;;;;;;;2.10;1.30;;;;;;;26.06;33.96;101181.00;1858206;77;21048;-64
2022/05/17 09:29:46;;;;;;;3.20;1.45;;;;;;;25.56;34.63;101179.97;1859100;77;21125;-63
2022/05/17 09:32:32;;;;;;;1.32;1.00;;;;;;;24.88;35.38;101190.36;1858248;77;21079;-62
2022/05/17 09:35:20;;;;;;;3.52;1.50;;;;;;;24.57;35.94;101198.56;1859051;76;21159;-64
2022/05/17 09:37:54;;;;;;;4.05;1.30;;;;;;;23.89;36.64;101196.51;1856356;77;21142;-62
2022/05/17 09:40:26;;;;;;;2.50;1.40;;;;;;;23.56;37.86;101200.29;1859081;77;21067;-62
2022/05/17 09:43:01;;;;;;;1.70;1.35;;;;;;;23.58;37.74;101204.19;1855744;77;21076;-61
2022/05/17 09:45:55;;;;;;;2.45;1.25;;;;;;;23.53;37.97;101203.23;1859088;77;21090;-64
2022/05/17 09:54:33;;;;;;;2.65;1.52;;;;;;;23.69;38.78;101208.13;1856848;77;21040;-64
2022/05/17 09:57:22;;;;;;;7.00;1.22;;;;;;;24.18;38.13;101189.52;1859049;77;21134;-63
2022/05/17 09:59:56;;;;;;;5.15;1.47;;;;;;;24.76;37.65;101190.98;1853012;77;21054;-63
2022/05/17 10:02:29;;;;;;;3.12;1.27;;;;;;;25.14;36.39;101201.87;1858098;77;21122;-60
2022/05/17 10:05:13;;;;;;;2.10;1.37;;;;;;;25.00;36.91;101198.63;1856883;77;21130;-59
2022/05/17 10:07:43;;;;;;;6.70;1.10;;;;;;;25.05;36.90;101204.44;1859323;77;21044;-59
2022/05/17 10:10:23;;;;;;;4.00;1.10;;;;;;;24.72;37.03;101212.96;1859043;77;21217;-60
2022/05/17 10:12:56;;;;;;;3.77;1.50;;;;;;;24.37;38.11;101195.45;1856800;77;21515;-61
2022/05/17 10:15:26;;;;;;;2.40;1.45;;;;;;;24.34;39.35;101207.83;1856808;77;21079;-61
2022/05/17 10:17:59;;;;;;;3.08;1.90;;;;;;;24.39;39.46;101186.74;1859001;77;21039;-61
2022/05/17 10:20:30;;;;;;;2.53;1.70;;;;;;;24.38;39.01;101209.25;1857532;77;21134;-60
2022/05/17 10:23:08;;;;;;;4.33;1.50;;;;;;;24.28;38.98;101214.11;1858105;77;21055;-59
2022/05/17 10:25:48;;;;;;;3.37;1.40;;;;;;;24.44;38.99;101193.91;1856713;77;21039;-59
2022/05/17 10:28:35;;;;;;;3.77;1.50;;;;;;;24.73;38.75;101200.67;1853824;77;21126;-61
2022/05/17 10:31:11;;;;;;;5.22;1.67;;;;;;;24.61;38.61;101216.13;1858884;77;21052;-59
2022/05/17 10:33:51;;;;;;;2.98;1.40;;;;;;;24.35;38.96;101214.93;1859126;77;21059;-61
2022/05/17 10:36:28;;;;;;;4.17;1.57;;;;;;;24.14;39.15;101207.77;1856688;76;21081;-59
2022/05/17 10:39:03;;;;;;;2.50;1.35;;;;;;;23.97;39.87;101220.53;1856139;77;21552;-61
2022/05/17 10:41:32;;;;;;;3.55;1.50;;;;;;;23.80;40.05;101222.86;1893579;76;21473;-61
2022/05/17 10:44:01;;;;;;;3.98;1.40;;;;;;;23.62;40.80;101216.37;1913283;75;21059;-61
2022/05/17 10:46:36;;;;;;;5.03;1.77;;;;;;;23.51;40.80;101218.14;1908016;75;21517;-62
2022/05/17 10:49:31;;;;;;;1.75;1.32;;;;;;;23.25;41.07;101220.88;1885067;76;21070;-60
2022/05/17 10:52:08;;;;;;;2.25;1.57;;;;;;;23.04;42.38;101216.35;1886044;76;21039;-59
2022/05/17 10:54:52;;;;;;;6.03;2.12;;;;;;;23.06;41.49;101215.73;1885828;76;21082;-59
2022/05/17 10:57:53;;;;;;;2.67;1.47;;;;;;;22.95;41.98;101217.09;1887767;75;21104;-59
2022/05/17 11:00:25;;;;;;;1.92;1.20;;;;;;;22.90;42.29;101200.52;1886014;76;21502;-61
2022/05/17 11:03:16;;;;;;;3.27;1.92;;;;;;;22.57;42.49;101210.39;1885859;76;21555;-61
2022/05/17 11:06:20;;;;;;;2.05;1.40;;;;;;;22.37;43.01;101198.60;1886022;76;21105;-60
2022/05/17 11:09:09;;;;;;;2.85;1.20;;;;;;;22.51;43.56;101192.12;1887921;75;21070;-62
2022/05/17 11:12:09;;;;;;;3.10;1.40;;;;;;;22.62;43.23;101206.84;1885896;76;21089;-63
2022/05/17 11:14:52;;;;;;;2.70;1.70;;;;;;;22.44;42.45;101201.64;1886046;76;21093;-63
2022/05/17 11:17:27;;;;;;;3.15;1.50;;;;;;;22.13;43.55;101197.39;1887567;75;21086;-62
2022/05/17 11:20:17;;;;;;;3.20;1.62;;;;;;;22.08;43.18;101194.26;1832759;78;21062;-63
2022/05/17 11:22:52;;;;;;;4.45;1.67;;;;;;;22.01;44.17;101191.70;1834359;78;21106;-63
2022/05/17 11:25:48;;;;;;;2.85;1.32;;;;;;;22.02;43.55;101189.37;1790131;78;21102;-62
2022/05/17 11:28:36;;;;;;;4.05;1.50;;;;;;;22.01;43.58;101203.77;1854266;77;21128;-62
2022/05/17 11:31:33;;;;;;;2.08;1.40;;;;;;;22.07;43.77;101195.22;1853687;77;21128;-60
2022/05/17 11:34:29;;;;;;;4.05;1.52;;;;;;;21.91;44.04;101194.24;1883480;75;21484;-63
2022/05/17 11:36:58;;;;;;;7.08;1.57;;;;;;;21.68;43.24;101200.95;1884836;76;21045;-62
2022/05/17 11:39:37;;;;;;;1.52;1.30;;;;;;;21.46;43.71;101207.13;1885885;76;21120;-62
2022/05/17 11:42:34;;;;;;;4.62;1.52;;;;;;;21.32;43.88;101189.44;1882899;76;21155;-62
2022/05/17 11:45:21;;;;;;;3.25;1.40;;;;;;;21.33;44.23;101178.22;1885522;76;21038;-63
2022/05/17 11:47:58;;;;;;;2.60;1.70;;;;;;;21.48;44.88;101182.41;1883431;76;21144;-61
2022/05/17 11:50:33;;;;;;;1.95;1.40;;;;;;;21.59;44.81;101187.77;1882655;76;21077;-61
2022/05/17 11:53:27;;;;;;;5.05;1.47;;;;;;;21.62;44.76;101176.48;1882631;76;21002;-63
2022/05/17 11:56:16;;;;;;;3.02;1.37;;;;;;;21.55;44.68;101148.81;1841331;78;21071;-63
2022/05/17 11:58:51;;;;;;;4.08;1.57;;;;;;;21.59;44.49;101174.38;1841470;78;21070;-62
2022/05/17 12:01:32;;;;;;;1.42;1.30;;;;;;;21.64;43.81;101160.63;1841345;78;21055;-61
2022/05/17 12:04:26;;;;;;;1.70;1.20;;;;;;;21.72;43.80;101166.72;1849703;75;21050;-61
2022/05/17 12:07:04;;;;;;;2.52;1.42;;;;;;;21.70;44.00;101170.02;1882515;76;21031;-61